createdAt,value
2019-03-24T00:00:11.899Z,4.50
2019-03-24T00:02:40.905Z,4.40
2019-03-24T00:05:09.815Z,4.30
2019-03-24T00:07:38.655Z,4.30
2019-03-24T00:10:09.518Z,4.30
2019-03-24T00:12:38.097Z,4.40
2019-03-24T00:15:08.237Z,4.40
2019-03-24T00:17:37.099Z,4.40
2019-03-24T00:20:10.025Z,4.50
2019-03-24T00:22:38.091Z,4.50
2019-03-24T00:25:08.023Z,4.50
2019-03-24T00:27:36.876Z,4.40
2019-03-24T00:30:10.076Z,4.40
2019-03-24T00:32:38.879Z,4.30
2019-03-24T00:35:08.139Z,4.30
2019-03-24T00:37:36.671Z,4.30
2019-03-24T00:40:09.490Z,4.30
2019-03-24T00:42:38.309Z,4.30
2019-03-24T00:45:09.337Z,4.20
2019-03-24T00:47:38.197Z,4.20
2019-03-24T00:50:07.630Z,4.20
2019-03-24T00:52:36.522Z,4.10
2019-03-24T00:55:07.253Z,4.20
2019-03-24T00:57:37.625Z,4.20
2019-03-24T01:00:11.861Z,4.30
2019-03-24T01:02:40.688Z,4.30
2019-03-24T01:05:09.785Z,4.20
2019-03-24T01:07:38.825Z,4.20
2019-03-24T01:10:09.038Z,4.10
2019-03-24T01:12:38.035Z,4.00
2019-03-24T01:15:07.921Z,3.80
2019-03-24T01:17:38.073Z,3.70
2019-03-24T01:20:08.172Z,3.60
2019-03-24T01:22:37.384Z,3.60
2019-03-24T01:25:07.136Z,3.70
2019-03-24T01:27:36.041Z,3.70
2019-03-24T01:30:08.999Z,3.60
2019-03-24T01:32:37.924Z,3.60
2019-03-24T01:35:07.278Z,3.60
2019-03-24T01:37:36.194Z,3.60
2019-03-24T01:40:07.005Z,3.60
2019-03-24T01:42:35.969Z,3.60
2019-03-24T01:45:10.626Z,3.50
2019-03-24T01:47:39.488Z,3.40
2019-03-24T01:50:08.629Z,3.50
2019-03-24T01:52:37.502Z,3.40
2019-03-24T01:55:06.659Z,3.40
2019-03-24T01:57:35.454Z,3.40
2019-03-24T02:00:08.558Z,3.50
2019-03-24T02:02:37.419Z,3.50
2019-03-24T02:05:07.080Z,3.50
2019-03-24T02:07:36.115Z,3.30
2019-03-24T02:10:09.757Z,3.30
2019-03-24T02:12:38.232Z,3.30
2019-03-24T02:15:08.433Z,3.40
2019-03-24T02:17:37.259Z,3.40
2019-03-24T02:20:07.201Z,3.40
2019-03-24T02:22:36.103Z,3.30
2019-03-24T02:25:06.345Z,3.30
2019-03-24T02:27:35.066Z,3.20
2019-03-24T02:30:04.784Z,3.30
2019-03-24T02:32:33.542Z,3.30
2019-03-24T02:35:02.293Z,3.30
2019-03-24T02:37:31.100Z,3.20
2019-03-24T02:39:59.862Z,3.30
2019-03-24T02:42:28.412Z,3.30
2019-03-24T02:44:57.331Z,3.30
2019-03-24T02:47:26.074Z,3.30
2019-03-24T02:49:54.840Z,3.30
2019-03-24T02:52:23.747Z,3.20
2019-03-24T02:54:52.579Z,3.20
2019-03-24T02:57:21.045Z,3.20
2019-03-24T02:59:49.924Z,3.00
2019-03-24T03:02:18.686Z,3.00
2019-03-24T03:04:47.518Z,2.90
2019-03-24T03:07:16.379Z,2.80
2019-03-24T03:09:45.300Z,2.80
2019-03-24T03:12:14.085Z,2.80
2019-03-24T03:14:42.949Z,2.80
2019-03-24T03:17:11.767Z,2.70
2019-03-24T03:19:40.508Z,2.70
2019-03-24T03:22:09.325Z,2.70
2019-03-24T03:24:38.143Z,2.70
2019-03-24T03:27:06.972Z,2.70
2019-03-24T03:29:35.822Z,2.70
2019-03-24T03:32:04.593Z,2.70
2019-03-24T03:34:33.430Z,2.60
2019-03-24T03:37:02.316Z,2.60
2019-03-24T03:39:31.158Z,2.70
2019-03-24T03:41:59.984Z,2.70
2019-03-24T03:44:28.861Z,2.80
2019-03-24T03:46:57.761Z,2.80
2019-03-24T03:49:26.310Z,2.80
2019-03-24T03:51:55.125Z,2.70
2019-03-24T03:54:23.982Z,2.60
2019-03-24T03:56:52.472Z,2.50
2019-03-24T03:59:21.366Z,2.50
2019-03-24T04:01:50.182Z,2.60
2019-03-24T04:04:18.715Z,2.50
2019-03-24T04:06:47.602Z,2.50
2019-03-24T04:09:16.096Z,2.40
2019-03-24T04:11:45.075Z,2.30
2019-03-24T04:14:13.998Z,2.30
2019-03-24T04:16:42.841Z,2.30
2019-03-24T04:19:11.617Z,2.20
2019-03-24T04:21:40.497Z,2.10
2019-03-24T04:24:09.373Z,2.20
2019-03-24T04:26:38.258Z,2.20
2019-03-24T04:29:07.185Z,2.10
2019-03-24T04:31:36.020Z,2.20
2019-03-24T04:34:04.945Z,2.20
2019-03-24T04:36:33.811Z,2.20
2019-03-24T04:39:02.739Z,2.30
2019-03-24T04:41:31.611Z,2.30
2019-03-24T04:44:00.472Z,2.30
2019-03-24T04:46:29.320Z,2.30
2019-03-24T04:48:59.142Z,2.30
2019-03-24T04:51:27.648Z,2.30
2019-03-24T04:53:56.442Z,2.30
2019-03-24T04:56:25.297Z,2.20
2019-03-24T04:58:53.816Z,2.10
2019-03-24T05:01:22.616Z,2.10
2019-03-24T05:03:51.375Z,2.10
2019-03-24T05:06:20.595Z,2.10
2019-03-24T05:08:50.295Z,2.10
2019-03-24T05:11:19.102Z,2.10
2019-03-24T05:13:47.654Z,2.00
2019-03-24T05:16:16.449Z,2.00
2019-03-24T05:18:45.223Z,2.00
2019-03-24T05:21:14.104Z,2.00
2019-03-24T05:23:42.910Z,2.00
2019-03-24T05:26:13.326Z,2.00
2019-03-24T05:28:41.912Z,2.10
2019-03-24T05:31:10.687Z,2.10
2019-03-24T05:33:39.533Z,2.10
2019-03-24T05:36:08.323Z,2.20
2019-03-24T05:38:45.968Z,2.30
2019-03-24T05:41:14.743Z,2.30
2019-03-24T05:43:43.527Z,2.40
2019-03-24T05:46:12.387Z,2.50
2019-03-24T05:48:42.301Z,2.60
2019-03-24T05:51:12.076Z,2.70
2019-03-24T05:53:40.925Z,2.70
2019-03-24T05:56:09.446Z,2.80
2019-03-24T05:58:38.171Z,2.80
2019-03-24T06:01:06.712Z,3.00
2019-03-24T06:03:35.474Z,3.20
2019-03-24T06:06:04.435Z,3.20
2019-03-24T06:08:33.224Z,3.30
2019-03-24T06:11:02.024Z,3.40
2019-03-24T06:13:30.835Z,3.60
2019-03-24T06:15:59.356Z,4.10
2019-03-24T06:18:28.330Z,4.30
2019-03-24T06:20:57.137Z,4.50
2019-03-24T06:23:25.904Z,4.80
2019-03-24T06:25:56.488Z,5.20
2019-03-24T06:28:25.338Z,5.50
2019-03-24T06:30:54.206Z,5.70
2019-03-24T06:33:22.957Z,6.00
2019-03-24T06:35:55.171Z,6.50
2019-03-24T06:38:26.882Z,7.10
2019-03-24T06:40:55.767Z,7.40
2019-03-24T06:43:24.690Z,7.70
2019-03-24T06:45:54.860Z,8.00
2019-03-24T06:48:27.616Z,8.60
2019-03-24T06:54:09.623Z,9.60
2019-03-24T06:59:43.362Z,10.50
2019-03-24T07:02:15.215Z,11.10
2019-03-24T07:04:44.095Z,11.50
2019-03-24T07:07:14.485Z,11.70
2019-03-24T07:10:01.883Z,12.00
2019-03-24T07:12:48.911Z,12.40
2019-03-24T07:15:32.976Z,12.70
2019-03-24T07:18:19.326Z,13.10
2019-03-24T07:20:50.139Z,13.60
2019-03-24T07:23:24.875Z,14.00
2019-03-24T07:26:43.214Z,14.10
2019-03-24T07:33:01.527Z,14.80
2019-03-24T07:35:43.301Z,15.20
2019-03-24T07:39:07.136Z,15.40
2019-03-24T07:41:42.137Z,15.70
2019-03-24T07:44:31.859Z,16.00
2019-03-24T07:47:06.350Z,16.20
2019-03-24T07:49:35.475Z,16.30
2019-03-24T07:52:26.055Z,16.50
2019-03-24T07:57:44.232Z,16.90
2019-03-24T08:00:13.518Z,16.90
2019-03-24T08:02:50.998Z,16.50
2019-03-24T08:05:16.307Z,16.40
2019-03-24T08:07:45.187Z,16.50
2019-03-24T08:10:15.383Z,16.40
2019-03-24T08:12:44.251Z,16.40
2019-03-24T08:15:13.146Z,16.30
2019-03-24T08:17:41.912Z,16.30
2019-03-24T08:20:12.316Z,16.20
2019-03-24T08:22:40.938Z,16.10
2019-03-24T08:25:09.960Z,15.80
2019-03-24T08:27:38.756Z,15.70
2019-03-24T08:30:08.164Z,15.50
2019-03-24T08:32:37.154Z,15.50
2019-03-24T08:35:08.906Z,15.50
2019-03-24T08:37:37.833Z,15.50
2019-03-24T08:40:08.027Z,15.60
2019-03-24T08:42:36.855Z,15.60
2019-03-24T08:45:06.419Z,15.70
2019-03-24T08:47:34.876Z,15.70
2019-03-24T08:50:04.052Z,15.60
2019-03-24T08:52:32.583Z,15.60
2019-03-24T08:55:01.344Z,15.80
2019-03-24T08:57:32.334Z,15.90
2019-03-24T09:00:00.546Z,15.90
2019-03-24T09:02:29.344Z,15.90
2019-03-24T09:04:58.215Z,16.10
2019-03-24T09:07:27.061Z,16.10
2019-03-24T09:09:55.823Z,16.20
2019-03-24T09:12:24.691Z,16.30
2019-03-24T09:14:53.572Z,16.30
2019-03-24T09:17:22.105Z,16.40
2019-03-24T09:19:50.963Z,16.50
2019-03-24T09:22:19.513Z,16.60
2019-03-24T09:24:48.290Z,16.70
2019-03-24T09:27:17.227Z,16.80
2019-03-24T09:29:45.991Z,16.90
2019-03-24T09:32:14.851Z,16.90
2019-03-24T09:34:43.698Z,16.90
2019-03-24T09:37:12.522Z,16.90
2019-03-24T09:39:41.312Z,17.00
2019-03-24T09:42:10.118Z,16.90
2019-03-24T09:44:38.971Z,16.80
2019-03-24T09:47:07.752Z,17.00
2019-03-24T09:49:36.597Z,17.20
2019-03-24T09:52:05.133Z,17.00
2019-03-24T09:54:33.918Z,17.40
2019-03-24T09:57:02.505Z,17.50
2019-03-24T09:59:31.816Z,17.60
2019-03-24T10:02:00.661Z,17.80
2019-03-24T10:04:29.575Z,18.20
2019-03-24T10:06:58.350Z,18.30
2019-03-24T10:09:27.216Z,18.30
2019-03-24T10:11:56.115Z,17.90
2019-03-24T10:14:24.900Z,18.20
2019-03-24T10:16:55.624Z,18.40
2019-03-24T10:19:24.205Z,18.60
2019-03-24T10:21:52.747Z,18.60
2019-03-24T10:24:21.542Z,18.60
2019-03-24T10:26:50.425Z,18.70
2019-03-24T10:29:19.214Z,18.70
2019-03-24T10:31:48.064Z,18.70
2019-03-24T10:34:16.889Z,18.40
2019-03-24T10:36:45.370Z,18.40
2019-03-24T10:39:13.842Z,18.50
2019-03-24T10:41:42.654Z,18.60
2019-03-24T10:44:11.397Z,18.80
2019-03-24T10:46:40.201Z,19.00
2019-03-24T10:49:09.073Z,19.00
2019-03-24T10:51:37.921Z,18.80
2019-03-24T10:54:06.708Z,18.90
2019-03-24T10:56:35.207Z,19.10
2019-03-24T10:59:03.764Z,19.20
2019-03-24T11:01:32.537Z,19.40
2019-03-24T11:04:01.366Z,19.40
2019-03-24T11:06:30.225Z,19.40
2019-03-24T11:08:59.026Z,19.50
2019-03-24T11:11:27.982Z,19.70
2019-03-24T11:13:56.545Z,19.70
2019-03-24T11:16:25.186Z,19.70
2019-03-24T11:18:54.188Z,19.70
2019-03-24T11:21:22.965Z,19.50
2019-03-24T11:23:51.850Z,19.70
2019-03-24T11:26:20.729Z,19.80
2019-03-24T11:28:49.216Z,19.90
2019-03-24T11:31:17.702Z,20.10
2019-03-24T11:33:49.734Z,20.10
2019-03-24T11:36:33.114Z,19.90
2019-03-24T11:39:09.951Z,19.90
2019-03-24T11:44:37.766Z,20.10
2019-03-24T11:47:06.640Z,20.00
2019-03-24T11:49:49.066Z,20.00
2019-03-24T11:52:16.318Z,20.20
2019-03-24T11:54:45.112Z,20.20
2019-03-24T11:57:13.983Z,20.50
2019-03-24T11:59:42.866Z,20.40
2019-03-24T12:02:19.354Z,20.40
2019-03-24T12:05:00.891Z,20.30
2019-03-24T12:07:33.669Z,19.70
2019-03-24T12:10:02.315Z,19.20
2019-03-24T12:12:30.754Z,19.40
2019-03-24T12:14:59.455Z,19.60
2019-03-24T12:17:27.898Z,19.90
2019-03-24T12:19:57.271Z,20.00
2019-03-24T12:22:25.807Z,20.30
2019-03-24T12:24:54.537Z,20.50
2019-03-24T12:27:23.239Z,20.70
2019-03-24T12:29:51.938Z,20.90
2019-03-24T12:32:20.670Z,21.00
2019-03-24T12:34:49.363Z,20.90
2019-03-24T12:37:18.067Z,20.70
2019-03-24T12:39:46.792Z,20.70
2019-03-24T12:42:15.493Z,20.40
2019-03-24T12:44:44.198Z,20.10
2019-03-24T12:47:12.661Z,19.90
2019-03-24T12:49:41.360Z,19.90
2019-03-24T12:52:10.051Z,20.10
2019-03-24T12:54:38.514Z,20.20
2019-03-24T12:57:07.217Z,20.10
2019-03-24T12:59:35.923Z,19.70
2019-03-24T13:02:04.639Z,19.40
2019-03-24T13:04:33.411Z,19.40
2019-03-24T13:07:02.111Z,19.60
2019-03-24T13:09:30.557Z,19.60
2019-03-24T13:11:59.250Z,19.40
2019-03-24T13:14:30.582Z,19.50
2019-03-24T13:16:58.394Z,19.50
2019-03-24T13:19:27.089Z,19.50
2019-03-24T13:21:55.539Z,19.20
2019-03-24T13:24:24.073Z,18.70
2019-03-24T13:26:52.759Z,18.50
2019-03-24T13:29:21.450Z,18.50
2019-03-24T13:31:50.177Z,18.60
2019-03-24T13:34:18.866Z,18.70
2019-03-24T13:36:47.560Z,18.80
2019-03-24T13:39:16.012Z,18.90
2019-03-24T13:41:44.707Z,18.80
2019-03-24T13:44:13.408Z,18.60
2019-03-24T13:46:42.147Z,18.40
2019-03-24T13:49:10.640Z,18.00
2019-03-24T13:51:39.075Z,17.60
2019-03-24T13:54:07.523Z,17.20
2019-03-24T13:56:36.399Z,16.80
2019-03-24T13:59:04.963Z,16.40
2019-03-24T14:01:33.753Z,16.10
2019-03-24T14:04:02.435Z,15.90
2019-03-24T14:06:31.347Z,15.90
2019-03-24T14:09:00.055Z,16.10
2019-03-24T14:11:28.490Z,16.30
2019-03-24T14:13:57.179Z,16.40
2019-03-24T14:16:25.902Z,16.20
2019-03-24T14:18:54.600Z,16.20
2019-03-24T14:21:23.304Z,16.10
2019-03-24T14:23:52.040Z,16.00
2019-03-24T14:26:20.913Z,16.00
2019-03-24T14:28:49.616Z,16.00
2019-03-24T14:31:18.332Z,16.00
2019-03-24T14:33:47.032Z,16.00
2019-03-24T14:36:15.731Z,16.00
2019-03-24T14:38:44.456Z,15.90
2019-03-24T14:41:13.150Z,15.80
2019-03-24T14:43:41.858Z,15.50
2019-03-24T14:46:10.384Z,15.30
2019-03-24T14:48:39.087Z,15.20
2019-03-24T14:51:07.532Z,15.20
2019-03-24T14:53:36.269Z,15.10
2019-03-24T14:56:05.030Z,14.80
2019-03-24T14:58:33.735Z,14.90
2019-03-24T15:01:02.464Z,15.00
2019-03-24T15:03:31.160Z,15.10
2019-03-24T15:05:59.862Z,15.10
2019-03-24T15:08:28.404Z,15.10
2019-03-24T15:14:08.480Z,15.10
2019-03-24T15:25:53.019Z,14.60
2019-03-24T15:28:21.475Z,14.50
2019-03-24T15:30:50.164Z,14.40
2019-03-24T15:33:18.859Z,14.30
2019-03-24T15:35:47.606Z,14.30
2019-03-24T15:55:30.398Z,14.00
2019-03-24T15:58:13.982Z,13.90
2019-03-24T16:00:44.412Z,13.80
2019-03-24T16:03:13.356Z,13.70
2019-03-24T16:05:42.229Z,13.60
2019-03-24T16:08:13.436Z,13.50
2019-03-24T16:10:42.186Z,13.30
2019-03-24T16:19:00.664Z,13.00
2019-03-24T16:26:57.531Z,12.70
2019-03-24T16:29:30.754Z,12.60
2019-03-24T16:32:34.024Z,12.50
2019-03-24T17:30:40.784Z,10.70
2019-03-24T21:34:29.225Z,6.00
2019-03-24T21:37:41.501Z,6.10
2019-03-24T22:05:39.193Z,7.10
2019-03-24T22:08:23.655Z,7.10
2019-03-24T22:14:01.380Z,7.10
2019-03-24T22:22:41.451Z,7.20
2019-03-24T22:25:21.933Z,7.30
2019-03-24T22:28:33.849Z,7.30
2019-03-24T22:31:12.715Z,7.20
2019-03-24T22:33:27.313Z,7.20
2019-03-24T22:42:25.161Z,7.40
2019-03-24T22:44:53.862Z,7.40
2019-03-24T22:47:17.622Z,7.50
2019-03-24T22:49:53.747Z,7.50
2019-03-24T22:52:27.059Z,7.50
2019-03-24T22:55:01.254Z,7.60
2019-03-24T22:57:32.784Z,7.60
2019-03-24T23:00:01.911Z,7.70
2019-03-24T23:02:30.728Z,7.70
2019-03-24T23:04:59.764Z,7.70
2019-03-24T23:07:33.009Z,7.70
2019-03-24T23:10:03.753Z,7.70
2019-03-24T23:12:42.047Z,7.70
2019-03-24T23:15:11.404Z,7.70
2019-03-24T23:17:44.120Z,7.80
2019-03-24T23:20:20.066Z,7.80
2019-03-24T23:22:58.301Z,7.90
2019-03-24T23:25:31.657Z,7.90
2019-03-24T23:28:01.949Z,7.90
2019-03-24T23:30:32.925Z,7.90
2019-03-24T23:33:03.338Z,7.90
2019-03-24T23:35:47.053Z,7.90
2019-03-24T23:38:27.730Z,7.90
2019-03-24T23:40:58.496Z,7.90
2019-03-24T23:43:28.019Z,8.00
2019-03-24T23:45:56.921Z,7.90
2019-03-24T23:48:25.918Z,7.90
2019-03-24T23:50:55.088Z,7.90
2019-03-24T23:53:24.091Z,7.90
2019-03-24T23:55:53.139Z,7.90
2019-03-24T23:58:22.790Z,7.90
